Time;durP1;ratioP1;P1;durP2;ratioP2;P2;SDS_P1;SDS_P2;PMS_P1;PMS_P2;Temp;Humidity;BMP_temperature;BMP_pressure;BME280_temperature;BME280_humidity;BME280_pressure;Samples;Min_cycle;Max_cycle;Signal;HPM_P1;HPM_P2
2023/05/14 00:02:55;;;;;;;6.15;3.20;;;23.90;66.60;;;;;;10528462;28;20459;-24
2023/05/14 00:07:56;;;;;;;5.90;3.33;;;23.80;66.40;;;;;;10529484;28;20072;-24
2023/05/14 00:12:59;;;;;;;6.70;3.92;;;23.70;66.80;;;;;;10530478;28;20052;-24
2023/05/14 00:18:01;;;;;;;8.95;3.42;;;23.60;67.10;;;;;;10528752;28;20079;-24
2023/05/14 00:23:03;;;;;;;7.60;4.00;;;23.70;66.70;;;;;;10533894;28;20082;-23
2023/05/14 00:28:07;;;;;;;;;;;23.70;66.70;;;;;;10528909;28;20090;-22
2023/05/14 00:33:08;;;;;;;10.82;4.32;;;23.50;67.20;;;;;;10546897;28;19926;-23
2023/05/14 00:38:15;;;;;;;;;;;23.10;67.80;;;;;;10537346;28;20056;-24
2023/05/14 00:43:19;;;;;;;8.02;3.95;;;23.40;66.90;;;;;;10536307;28;19970;-23
2023/05/14 00:48:21;;;;;;;7.88;4.00;;;23.40;67.60;;;;;;10537923;28;20079;-24
2023/05/14 00:53:23;;;;;;;5.93;3.38;;;23.30;67.50;;;;;;10533657;28;20071;-24
2023/05/14 00:58:26;;;;;;;;;;;23.20;67.70;;;;;;10534102;28;20132;-23
2023/05/14 01:03:29;;;;;;;6.88;3.28;;;23.40;67.50;;;;;;10515796;28;20382;-24
2023/05/14 01:08:39;;;;;;;5.88;3.90;;;23.20;67.50;;;;;;10524747;28;20113;-23
2023/05/14 01:13:51;;;;;;;9.50;4.13;;;23.20;67.40;;;;;;10523003;28;20072;-24
2023/05/14 01:18:54;;;;;;;;;;;23.20;67.50;;;;;;10529436;28;20106;-24
2023/05/14 01:23:57;;;;;;;;;;;23.20;67.40;;;;;;10528723;28;20372;-24
2023/05/14 01:29:03;;;;;;;3.95;2.97;;;23.20;67.50;;;;;;10540898;28;20006;-24
2023/05/14 01:34:06;;;;;;;6.10;3.17;;;23.20;67.60;;;;;;10528881;28;20040;-24
2023/05/14 01:39:11;;;;;;;6.45;3.17;;;23.20;67.10;;;;;;10532677;28;20134;-24
2023/05/14 01:44:13;;;;;;;5.43;3.38;;;23.20;67.10;;;;;;10527055;28;20105;-24
2023/05/14 01:49:17;;;;;;;7.65;3.50;;;23.10;66.80;;;;;;10536760;28;20130;-27
2023/05/14 01:54:20;;;;;;;6.90;2.92;;;23.10;67.10;;;;;;10517876;28;20044;-24
2023/05/14 01:59:22;;;;;;;4.97;3.00;;;23.10;66.90;;;;;;10536893;28;20051;-23
2023/05/14 02:04:23;;;;;;;4.90;3.03;;;23.10;67.40;;;;;;10529337;28;20036;-24
2023/05/14 02:09:26;;;;;;;4.00;3.30;;;23.00;67.10;;;;;;10536450;28;20074;-24
2023/05/14 02:14:28;;;;;;;4.78;3.10;;;23.00;66.90;;;;;;10540277;28;20120;-23
2023/05/14 02:19:31;;;;;;;4.22;2.75;;;23.00;67.30;;;;;;10542335;28;20084;-24
2023/05/14 02:24:34;;;;;;;5.40;2.85;;;22.90;67.20;;;;;;10538579;28;20063;-24
2023/05/14 02:29:35;;;;;;;6.15;3.33;;;22.90;67.40;;;;;;10545602;28;20044;-24
2023/05/14 02:34:37;;;;;;;5.63;2.60;;;22.80;67.20;;;;;;10526683;28;20115;-24
2023/05/14 02:39:41;;;;;;;5.78;3.22;;;22.80;67.40;;;;;;10529323;28;20541;-26
2023/05/14 02:44:42;;;;;;;5.75;2.90;;;22.70;67.90;;;;;;10519393;28;20451;-24
2023/05/14 02:49:44;;;;;;;5.97;3.28;;;22.70;67.90;;;;;;10518571;28;20109;-24
2023/05/14 02:54:47;;;;;;;5.88;3.10;;;22.60;67.90;;;;;;10539692;28;20059;-24
2023/05/14 03:15:30;;;;;;;4.60;2.75;;;22.70;65.90;;;;;;10516991;27;20144;-23
2023/05/14 03:20:32;;;;;;;4.82;3.20;;;22.60;67.80;;;;;;10535430;28;20082;-24
2023/05/14 03:25:34;;;;;;;4.15;3.10;;;22.60;67.70;;;;;;10538068;28;20080;-25
2023/05/14 03:30:37;;;;;;;4.22;2.70;;;22.60;67.60;;;;;;10528792;28;20101;-26
2023/05/14 03:35:39;;;;;;;5.60;2.83;;;22.60;67.40;;;;;;10546338;28;20477;-24
2023/05/14 03:40:41;;;;;;;3.47;2.25;;;22.60;67.40;;;;;;10513947;28;20044;-25
2023/05/14 03:45:44;;;;;;;5.05;2.63;;;22.50;67.50;;;;;;10503563;28;20110;-23
2023/05/14 03:50:46;;;;;;;7.57;3.28;;;22.50;67.90;;;;;;10536297;28;20045;-24
2023/05/14 03:55:48;;;;;;;3.35;2.70;;;22.40;66.50;;;;;;10537231;28;20127;-25
2023/05/14 04:00:51;;;;;;;5.07;3.50;;;22.30;68.50;;;;;;10524931;28;20048;-23
2023/05/14 04:05:53;;;;;;;6.20;3.03;;;22.10;70.00;;;;;;10527285;28;20106;-24
2023/05/14 04:10:55;;;;;;;7.03;3.17;;;22.20;69.30;;;;;;10542749;28;20496;-25
2023/05/14 04:15:58;;;;;;;6.85;3.42;;;22.10;69.30;;;;;;10523142;28;20076;-24
2023/05/14 04:21:01;;;;;;;5.22;2.83;;;21.80;70.40;;;;;;10527993;28;20055;-24
2023/05/14 04:26:03;;;;;;;;;;;22.20;68.50;;;;;;10505858;28;20126;-25
2023/05/14 04:31:06;;;;;;;7.13;3.05;;;22.00;69.50;;;;;;10502947;28;19969;-25
2023/05/14 04:36:08;;;;;;;7.30;3.35;;;22.00;69.10;;;;;;10504665;28;20094;-25
2023/05/14 04:41:10;;;;;;;;;;;22.10;68.70;;;;;;10502002;28;20448;-23
2023/05/14 04:46:14;;;;;;;5.93;3.07;;;21.90;69.00;;;;;;10507614;28;20327;-23
2023/05/14 04:51:15;;;;;;;5.10;3.42;;;21.90;69.70;;;;;;10503907;28;20055;-23
2023/05/14 04:56:17;;;;;;;11.20;6.20;;;21.70;70.40;;;;;;10493648;28;20041;-24
2023/05/14 05:01:22;;;;;;;5.85;4.30;;;21.50;70.10;;;;;;10492640;28;20068;-22
2023/05/14 05:06:23;;;;;;;5.72;3.80;;;20.80;75.40;;;;;;10493295;28;20040;-22
2023/05/14 05:11:25;;;;;;;6.38;4.00;;;21.40;70.50;;;;;;10492356;28;20060;-22
2023/05/14 05:16:29;;;;;;;5.85;4.38;;;21.10;74.20;;;;;;10499494;28;20455;-23
2023/05/14 05:21:30;;;;;;;5.68;3.72;;;21.50;71.40;;;;;;10502484;28;20059;-23
2023/05/14 05:26:35;;;;;;;5.65;3.60;;;21.80;69.30;;;;;;10516707;28;20109;-23
2023/05/14 05:31:38;;;;;;;6.80;4.13;;;21.60;69.80;;;;;;10508711;28;20151;-23
2023/05/14 05:36:41;;;;;;;8.32;3.92;;;21.10;73.10;;;;;;10499033;28;20052;-23
2023/05/14 05:41:43;;;;;;;;;;;21.30;70.50;;;;;;10493434;28;20128;-23
2023/05/14 05:46:46;;;;;;;4.25;3.45;;;21.50;70.20;;;;;;10490837;28;19928;-24
2023/05/14 05:51:48;;;;;;;6.03;3.97;;;21.70;68.10;;;;;;10494491;28;20485;-23
2023/05/14 05:56:49;;;;;;;5.93;3.67;;;21.40;71.40;;;;;;10501213;28;20100;-24
2023/05/14 06:01:53;;;;;;;4.80;3.50;;;21.30;71.10;;;;;;10494994;28;20550;-24
2023/05/14 06:06:55;;;;;;;6.43;4.68;;;21.40;71.00;;;;;;10499456;28;20126;-24
2023/05/14 06:11:56;;;;;;;5.60;3.63;;;21.60;68.90;;;;;;10486205;28;20087;-24
2023/05/14 06:17:00;;;;;;;4.28;3.75;;;21.30;70.80;;;;;;10496427;28;20076;-23
2023/05/14 06:22:01;;;;;;;6.30;3.85;;;21.10;72.00;;;;;;10493239;28;20477;-23
2023/05/14 06:27:03;;;;;;;11.45;4.68;;;21.40;70.30;;;;;;10480700;28;20048;-23
2023/05/14 06:32:08;;;;;;;5.20;3.70;;;20.90;70.80;;;;;;10492209;28;20051;-24
2023/05/14 06:37:10;;;;;;;7.68;4.15;;;21.40;70.90;;;;;;10486078;28;20071;-24
2023/05/14 06:42:11;;;;;;;5.50;3.83;;;21.20;70.00;;;;;;10487856;28;20083;-23
2023/05/14 06:47:15;;;;;;;5.25;3.95;;;21.60;69.00;;;;;;10484075;28;20049;-22
2023/05/14 06:52:16;;;;;;;5.70;3.83;;;20.70;73.60;;;;;;10492156;28;20656;-23
2023/05/14 06:57:18;;;;;;;9.45;4.93;;;20.20;75.90;;;;;;10484812;28;20145;-24
2023/05/14 07:02:21;;;;;;;12.35;5.38;;;18.90;82.80;;;;;;10498178;28;20519;-24
2023/05/14 07:07:23;;;;;;;3.58;2.97;;;20.00;77.50;;;;;;10494339;28;20098;-23
2023/05/14 07:12:26;;;;;;;11.20;5.30;;;20.40;76.90;;;;;;10504402;28;20450;-22
2023/05/14 07:17:29;;;;;;;4.28;3.17;;;19.80;75.40;;;;;;10487720;28;20040;-23
2023/05/14 07:22:30;;;;;;;5.15;3.58;;;20.30;75.00;;;;;;10491665;28;20124;-23
2023/05/14 07:27:32;;;;;;;7.93;3.97;;;20.70;74.70;;;;;;10485940;28;20071;-22
2023/05/14 07:32:35;;;;;;;3.38;3.03;;;20.10;78.80;;;;;;10484384;28;20094;-23
2023/05/14 07:37:37;;;;;;;5.45;3.70;;;20.10;80.40;;;;;;10483456;28;20071;-24
2023/05/14 07:42:39;;;;;;;3.25;2.95;;;20.40;74.50;;;;;;10481193;28;20054;-25
2023/05/14 07:47:42;;;;;;;5.72;2.97;;;20.60;77.00;;;;;;10479060;28;20468;-23
2023/05/14 07:52:44;;;;;;;3.80;3.42;;;21.00;73.70;;;;;;10487874;28;20048;-24
2023/05/14 07:57:46;;;;;;;4.05;3.08;;;20.40;75.20;;;;;;10482597;28;20054;-24
2023/05/14 08:02:50;;;;;;;5.28;3.10;;;20.60;77.30;;;;;;10488602;28;20043;-25
2023/05/14 08:07:52;;;;;;;4.05;3.50;;;20.30;78.80;;;;;;10491372;28;20494;-23
2023/05/14 08:12:53;;;;;;;5.95;3.67;;;19.60;80.20;;;;;;10495683;28;20090;-25
2023/05/14 08:18:01;;;;;;;7.40;3.90;;;19.80;84.80;;;;;;10494562;28;20088;-24
2023/05/14 08:23:06;;;;;;;7.32;3.20;;;19.70;79.50;;;;;;10514967;28;20055;-24
2023/05/14 08:28:08;;;;;;;5.35;3.00;;;19.60;80.50;;;;;;10502922;28;20489;-22
2023/05/14 08:33:11;;;;;;;11.60;4.18;;;20.50;80.50;;;;;;10472844;28;20044;-23
2023/05/14 08:38:13;;;;;;;5.05;4.15;;;20.00;83.50;;;;;;10490754;28;20227;-24
2023/05/14 08:43:20;;;;;;;6.97;3.97;;;20.40;81.60;;;;;;10491363;28;20083;-24
2023/05/14 08:48:24;;;;;;;6.47;3.95;;;21.20;75.70;;;;;;10512821;28;20048;-24
2023/05/14 08:53:26;;;;;;;10.45;3.78;;;20.00;78.40;;;;;;10491314;28;20086;-24
2023/05/14 08:58:28;;;;;;;;;;;19.30;90.30;;;;;;10494412;28;20101;-24
2023/05/14 09:03:32;;;;;;;8.18;4.07;;;17.30;93.10;;;;;;10503723;28;19928;-24
2023/05/14 09:08:35;;;;;;;10.07;4.32;;;18.50;94.50;;;;;;10483127;28;20048;-24
2023/05/14 09:13:39;;;;;;;13.75;4.25;;;18.20;94.50;;;;;;10497951;28;20359;-24
2023/05/14 09:18:45;;;;;;;9.57;4.30;;;18.20;96.10;;;;;;10489800;28;20051;-24
2023/05/14 09:23:48;;;;;;;7.95;3.97;;;19.30;93.50;;;;;;10494166;28;20390;-24
2023/05/14 09:28:53;;;;;;;5.22;3.10;;;18.30;96.40;;;;;;10485567;28;20135;-23
2023/05/14 09:33:57;;;;;;;9.65;3.92;;;20.40;86.60;;;;;;10484419;28;20094;-23
2023/05/14 09:39:00;;;;;;;5.65;3.17;;;20.10;86.10;;;;;;10484198;28;20147;-23
2023/05/14 09:44:01;;;;;;;5.20;3.05;;;20.80;84.40;;;;;;10487251;28;20045;-23
2023/05/14 09:49:05;;;;;;;7.15;3.20;;;20.80;76.60;;;;;;10481087;28;20723;-25
2023/05/14 09:54:07;;;;;;;5.45;3.00;;;20.30;73.60;;;;;;10482661;28;20059;-23
2023/05/14 09:59:09;;;;;;;5.63;3.10;;;21.10;82.20;;;;;;10483873;28;20132;-23
2023/05/14 10:04:13;;;;;;;7.53;3.65;;;21.70;77.00;;;;;;10498200;28;20076;-24
2023/05/14 10:09:20;;;;;;;9.27;3.90;;;20.70;72.80;;;;;;10482285;28;20053;-24
2023/05/14 10:14:26;;;;;;;13.40;4.03;;;19.40;77.80;;;;;;10487206;28;20052;-24
2023/05/14 10:19:33;;;;;;;9.43;3.42;;;18.50;94.80;;;;;;10489865;28;20155;-25
2023/05/14 10:24:37;;;;;;;7.60;3.72;;;20.00;90.90;;;;;;10484068;28;20470;-23
2023/05/14 10:29:40;;;;;;;6.00;3.55;;;20.80;84.40;;;;;;10484814;28;20144;-25
2023/05/14 10:34:44;;;;;;;7.75;3.53;;;21.80;79.30;;;;;;10487185;28;20555;-25
2023/05/14 10:39:47;;;;;;;11.90;4.53;;;20.80;81.20;;;;;;10497883;28;20490;-24
2023/05/14 10:44:53;;;;;;;15.80;5.38;;;20.30;91.40;;;;;;10490010;28;20453;-25
2023/05/14 10:49:58;;;;;;;9.18;3.05;;;18.40;92.40;;;;;;10481785;28;20051;-24
2023/05/14 10:55:01;;;;;;;16.15;5.10;;;19.70;87.90;;;;;;10502415;28;20462;-24
2023/05/14 11:00:06;;;;;;;11.52;4.18;;;18.10;98.00;;;;;;10486016;28;20068;-24
2023/05/14 11:05:12;;;;;;;4.70;2.88;;;19.50;92.80;;;;;;10487368;28;20488;-23
2023/05/14 11:10:16;;;;;;;5.90;3.10;;;18.80;90.10;;;;;;10498116;28;20044;-23
2023/05/14 11:15:21;;;;;;;4.95;2.50;;;21.50;82.40;;;;;;10481920;28;20056;-24
2023/05/14 11:20:24;;;;;;;6.00;3.00;;;21.40;83.20;;;;;;10484902;28;20051;-24
2023/05/14 11:25:26;;;;;;;6.82;2.92;;;19.60;94.80;;;;;;10486836;28;20454;-25
2023/05/14 11:30:31;;;;;;;16.90;4.90;;;21.50;83.20;;;;;;10482834;28;20498;-24
2023/05/14 11:35:35;;;;;;;12.45;4.60;;;19.00;84.40;;;;;;10493950;28;20489;-24
2023/05/14 11:40:37;;;;;;;17.17;5.63;;;18.90;94.50;;;;;;10495818;28;20048;-26
2023/05/14 11:45:39;;;;;;;14.10;4.38;;;18.50;93.70;;;;;;10490281;28;20056;-23
2023/05/14 11:50:46;;;;;;;10.43;3.95;;;19.30;88.70;;;;;;10505125;28;20107;-24
2023/05/14 11:55:48;;;;;;;12.15;5.35;;;19.20;96.40;;;;;;10502936;28;20052;-23
2023/05/14 12:00:50;;;;;;;6.78;3.92;;;19.80;93.80;;;;;;10489157;28;20051;-24
2023/05/14 12:05:57;;;;;;;;;;;21.50;88.80;;;;;;10498675;28;20076;-25
2023/05/14 12:11:00;;;;;;;4.93;3.75;;;19.90;78.50;;;;;;10495113;28;19963;-24
2023/05/14 12:16:02;;;;;;;13.63;4.30;;;20.70;93.40;;;;;;10485400;28;20060;-25
2023/05/14 12:21:07;;;;;;;;;;;20.00;80.40;;;;;;10489751;28;20526;-25
2023/05/14 12:26:09;;;;;;;12.30;4.85;;;20.90;89.80;;;;;;10494735;28;19959;-24
2023/05/14 12:31:11;;;;;;;9.00;4.60;;;20.10;81.50;;;;;;10493289;28;20048;-23
2023/05/14 12:36:14;;;;;;;11.32;4.28;;;19.50;87.60;;;;;;10480121;28;20055;-24
2023/05/14 12:41:17;;;;;;;12.05;4.10;;;21.20;92.00;;;;;;10494145;28;20036;-23
2023/05/14 12:46:19;;;;;;;7.10;3.53;;;19.80;82.70;;;;;;10484600;28;20520;-24
2023/05/14 12:51:22;;;;;;;;;;;21.20;91.90;;;;;;10493786;28;20118;-23
2023/05/14 12:56:27;;;;;;;9.68;4.18;;;20.10;97.40;;;;;;10494461;28;19928;-24
2023/05/14 13:01:29;;;;;;;11.45;4.07;;;19.10;84.80;;;;;;10489164;28;20041;-24
2023/05/14 13:06:32;;;;;;;6.20;3.05;;;19.50;92.30;;;;;;10486199;28;20137;-24
2023/05/14 13:11:34;;;;;;;9.35;3.88;;;21.50;93.70;;;;;;10496039;28;20127;-25
2023/05/14 13:16:36;;;;;;;11.30;3.97;;;19.40;80.10;;;;;;10490225;28;20143;-23
2023/05/14 13:21:39;;;;;;;11.23;3.60;;;19.60;82.00;;;;;;10485509;28;20075;-24
2023/05/14 13:26:43;;;;;;;6.20;3.13;;;19.90;87.10;;;;;;10492908;28;20058;-23
2023/05/14 13:31:45;;;;;;;12.80;4.03;;;20.00;86.00;;;;;;10495112;28;20049;-23
2023/05/14 13:36:49;;;;;;;6.38;2.72;;;19.40;97.90;;;;;;10485739;28;20707;-24
2023/05/14 13:41:51;;;;;;;10.55;2.88;;;20.20;94.00;;;;;;10484479;28;20036;-24
2023/05/14 13:46:53;;;;;;;9.90;2.97;;;22.00;72.30;;;;;;10489330;28;20037;-23
2023/05/14 13:51:56;;;;;;;11.57;4.07;;;19.70;98.60;;;;;;10485905;28;20524;-23
2023/05/14 13:56:58;;;;;;;11.43;3.80;;;19.20;96.40;;;;;;10490466;28;20049;-23
2023/05/14 14:02:00;;;;;;;5.22;2.15;;;20.90;72.80;;;;;;10487836;28;20112;-23
2023/05/14 14:07:03;;;;;;;4.30;2.28;;;22.80;85.10;;;;;;10487270;28;20076;-25
2023/05/14 14:12:06;;;;;;;7.65;2.65;;;22.00;87.60;;;;;;10486879;28;20079;-25
2023/05/14 14:17:08;;;;;;;6.90;2.30;;;21.60;84.90;;;;;;10487183;28;20445;-24
2023/05/14 14:22:14;;;;;;;4.00;2.70;;;21.90;79.70;;;;;;10486315;28;20389;-24
2023/05/14 14:27:17;;;;;;;7.03;2.65;;;21.30;89.50;;;;;;10490847;28;20044;-24
2023/05/14 14:32:19;;;;;;;5.72;2.50;;;22.50;68.80;;;;;;10489071;28;20044;-22
2023/05/14 14:37:22;;;;;;;;;;;21.30;78.10;;;;;;10487600;28;20113;-23
2023/05/14 14:42:23;;;;;;;6.65;2.33;;;22.60;78.30;;;;;;10476364;28;20849;-24
2023/05/14 14:47:25;;;;;;;6.88;2.72;;;23.30;69.30;;;;;;10480101;28;20080;-21
2023/05/14 14:52:29;;;;;;;7.20;2.40;;;22.40;74.10;;;;;;10484057;28;20068;-22
2023/05/14 14:57:31;;;;;;;6.30;1.83;;;23.70;68.80;;;;;;10494195;28;20615;-23
2023/05/14 15:02:32;;;;;;;;;;;23.70;68.30;;;;;;10484448;28;20048;-23
2023/05/14 15:07:35;;;;;;;7.82;2.08;;;23.10;67.40;;;;;;10494051;28;20009;-24
2023/05/14 15:12:37;;;;;;;5.82;2.08;;;22.80;73.00;;;;;;10493095;28;20242;-24
2023/05/14 15:17:40;;;;;;;;;;;22.40;77.50;;;;;;10486600;28;20056;-24
2023/05/14 15:22:43;;;;;;;5.40;2.30;;;22.30;78.10;;;;;;10476913;28;19921;-24
2023/05/14 15:27:45;;;;;;;7.35;2.47;;;23.20;72.10;;;;;;10487692;28;20048;-24
2023/05/14 15:32:47;;;;;;;6.50;1.90;;;22.50;76.00;;;;;;10492616;28;20150;-24
2023/05/14 15:37:50;;;;;;;8.10;2.38;;;22.80;75.80;;;;;;10482882;28;20083;-24
2023/05/14 15:42:52;;;;;;;7.30;2.38;;;22.10;70.80;;;;;;10483917;28;20412;-24
2023/05/14 15:47:54;;;;;;;2.78;1.65;;;22.80;75.60;;;;;;10485422;28;20051;-24
2023/05/14 15:52:57;;;;;;;2.90;1.60;;;22.80;72.00;;;;;;10486789;28;20059;-23
2023/05/14 15:57:59;;;;;;;7.32;1.70;;;22.30;76.70;;;;;;10487185;28;20148;-25
2023/05/14 16:03:01;;;;;;;2.85;1.35;;;22.10;74.50;;;;;;10486420;28;20121;-24
2023/05/14 16:08:05;;;;;;;4.97;2.10;;;24.10;68.10;;;;;;10484078;28;20477;-24
2023/05/14 16:13:06;;;;;;;4.03;1.80;;;24.40;65.90;;;;;;10488175;28;20053;-24
2023/05/14 16:18:08;;;;;;;;;;;24.60;65.20;;;;;;10491848;28;20048;-24
2023/05/14 16:23:11;;;;;;;5.28;2.10;;;24.70;65.70;;;;;;10483787;28;19929;-24
2023/05/14 16:28:14;;;;;;;4.45;2.50;;;23.90;59.70;;;;;;10490714;28;20163;-24
2023/05/14 16:33:15;;;;;;;9.82;2.55;;;23.50;70.20;;;;;;10488012;28;20040;-22
2023/05/14 16:38:19;;;;;;;8.35;3.25;;;22.90;71.70;;;;;;10486633;28;20669;-24
2023/05/14 16:43:21;;;;;;;6.03;2.63;;;22.80;65.10;;;;;;10489372;28;20439;-24
2023/05/14 16:48:24;;;;;;;8.40;2.40;;;22.20;62.70;;;;;;10488993;28;20109;-24
2023/05/14 16:53:28;;;;;;;6.70;2.58;;;24.10;68.00;;;;;;10495906;28;20113;-25
2023/05/14 16:58:30;;;;;;;7.45;2.70;;;23.50;73.30;;;;;;10490174;28;20054;-24
2023/05/14 17:03:31;;;;;;;5.22;2.60;;;21.80;83.20;;;;;;10491020;28;20064;-24
2023/05/14 17:08:34;;;;;;;5.28;2.10;;;21.30;88.30;;;;;;10497509;28;20450;-25
2023/05/14 17:13:36;;;;;;;4.93;2.70;;;22.90;79.80;;;;;;10487795;28;20052;-24
2023/05/14 17:18:38;;;;;;;7.70;2.45;;;24.30;65.40;;;;;;10484893;28;20155;-24
2023/05/14 17:23:42;;;;;;;6.03;2.03;;;22.40;76.20;;;;;;10470917;28;20498;-25
2023/05/14 17:28:44;;;;;;;8.45;2.30;;;23.40;61.20;;;;;;10499638;28;20061;-26
2023/05/14 17:33:46;;;;;;;6.80;2.22;;;23.40;74.10;;;;;;10495894;28;20098;-24
2023/05/14 17:38:49;;;;;;;;;;;23.20;75.50;;;;;;10477929;28;20061;-24
2023/05/14 17:43:51;;;;;;;5.00;2.50;;;24.70;67.30;;;;;;10492170;28;20031;-24
2023/05/14 17:48:53;;;;;;;6.18;2.13;;;23.40;74.90;;;;;;10495286;28;20047;-25
2023/05/14 17:53:56;;;;;;;4.55;1.70;;;24.20;72.50;;;;;;10496116;28;20045;-26
2023/05/14 17:58:58;;;;;;;5.00;1.83;;;24.90;69.50;;;;;;10499495;28;20040;-24
2023/05/14 18:04:00;;;;;;;2.55;1.80;;;23.90;71.20;;;;;;10480933;28;20052;-24
2023/05/14 18:09:04;;;;;;;3.67;1.70;;;24.30;73.00;;;;;;10483634;28;20079;-31
2023/05/14 18:14:06;;;;;;;2.70;1.65;;;24.40;72.00;;;;;;10487377;28;20052;-25
2023/05/14 18:19:08;;;;;;;6.15;1.70;;;24.70;68.80;;;;;;10492377;28;20070;-23
2023/05/14 18:24:11;;;;;;;5.43;1.88;;;23.80;74.00;;;;;;10483199;28;20144;-24
2023/05/14 18:29:13;;;;;;;3.40;1.90;;;25.00;66.20;;;;;;10489516;28;21319;-24
2023/05/14 18:34:15;;;;;;;5.28;1.60;;;24.70;63.40;;;;;;10483982;28;20477;-24
2023/05/14 18:39:19;;;;;;;4.65;1.88;;;24.80;66.70;;;;;;10493010;28;20511;-24
2023/05/14 18:44:20;;;;;;;4.82;1.60;;;23.90;70.00;;;;;;10485682;28;20041;-24
2023/05/14 18:49:22;;;;;;;;;;;24.30;69.80;;;;;;10490313;28;20052;-24
2023/05/14 18:54:25;;;;;;;3.15;1.63;;;24.00;68.60;;;;;;10494734;28;19920;-25
2023/05/14 18:59:27;;;;;;;4.38;1.73;;;24.30;69.30;;;;;;10489528;28;20048;-23
2023/05/14 19:04:29;;;;;;;;;;;23.10;78.10;;;;;;10486747;28;20135;-23
2023/05/14 19:09:32;;;;;;;4.88;1.48;;;24.70;67.00;;;;;;10496945;28;20349;-24
2023/05/14 19:14:34;;;;;;;4.07;1.35;;;24.70;66.50;;;;;;10488583;28;20546;-23
2023/05/14 19:19:36;;;;;;;3.60;1.25;;;24.70;67.00;;;;;;10485175;28;20098;-23
2023/05/14 19:24:39;;;;;;;4.70;1.50;;;24.90;65.60;;;;;;10488652;28;20072;-24
2023/05/14 19:29:41;;;;;;;3.90;1.23;;;24.90;65.40;;;;;;10486722;28;20055;-23
2023/05/14 19:34:43;;;;;;;4.22;1.70;;;24.90;65.10;;;;;;10483794;28;20572;-24
2023/05/14 19:39:46;;;;;;;2.70;1.92;;;24.90;65.20;;;;;;10488137;28;20060;-24
2023/05/14 19:44:48;;;;;;;4.35;1.42;;;24.80;65.10;;;;;;10483745;28;20044;-23
2023/05/14 19:49:50;;;;;;;3.83;1.70;;;24.80;65.20;;;;;;10479788;28;20102;-23
2023/05/14 19:54:53;;;;;;;6.28;1.50;;;24.70;65.10;;;;;;10481287;28;20048;-24
2023/05/14 19:59:55;;;;;;;5.78;1.63;;;24.70;65.20;;;;;;10494030;28;20044;-23
2023/05/14 20:04:57;;;;;;;;;;;24.70;65.00;;;;;;10493970;28;20616;-24
2023/05/14 20:10:00;;;;;;;5.07;2.35;;;24.60;65.40;;;;;;10491434;28;20353;-23
2023/05/14 20:15:03;;;;;;;6.75;2.22;;;24.60;65.60;;;;;;10513406;28;20088;-24
2023/05/14 20:20:07;;;;;;;6.18;2.70;;;24.50;65.80;;;;;;10485251;28;20136;-23
2023/05/14 20:25:11;;;;;;;8.38;2.78;;;24.50;65.90;;;;;;10491231;28;20146;-24
2023/05/14 20:30:13;;;;;;;5.25;2.58;;;24.50;65.90;;;;;;10500144;28;20113;-25
2023/05/14 20:35:15;;;;;;;4.32;2.58;;;24.40;66.60;;;;;;10506275;28;20078;-24
2023/05/14 20:40:18;;;;;;;6.68;3.13;;;24.40;66.00;;;;;;10499188;28;20074;-25
2023/05/14 20:45:20;;;;;;;6.03;2.30;;;24.30;66.20;;;;;;10498060;28;20071;-25
2023/05/14 20:50:22;;;;;;;;;;;24.30;66.20;;;;;;10495735;28;20139;-23
2023/05/14 20:55:25;;;;;;;7.22;3.13;;;24.20;66.30;;;;;;10494194;28;20304;-24
2023/05/14 21:00:27;;;;;;;7.10;3.03;;;24.20;66.40;;;;;;10501372;28;20072;-24
2023/05/14 21:05:29;;;;;;;4.15;3.00;;;24.10;66.10;;;;;;10486514;28;20048;-24
2023/05/14 21:10:32;;;;;;;;;;;24.10;66.60;;;;;;10493352;28;20045;-24
2023/05/14 21:15:34;;;;;;;4.65;2.70;;;24.00;66.70;;;;;;10499421;28;20338;-24
2023/05/14 21:20:36;;;;;;;5.30;2.78;;;24.00;65.60;;;;;;10507441;28;20404;-24
2023/05/14 21:25:41;;;;;;;;;;;23.90;66.70;;;;;;10512332;28;20538;-24
2023/05/14 21:30:43;;;;;;;7.22;3.20;;;23.50;67.10;;;;;;10496218;28;20341;-25
2023/05/14 21:35:45;;;;;;;5.72;3.17;;;23.70;67.00;;;;;;10497842;28;20084;-26
2023/05/14 21:40:48;;;;;;;;;;;23.60;67.00;;;;;;10489961;28;20110;-25
2023/05/14 21:45:49;;;;;;;5.10;2.80;;;23.60;66.80;;;;;;10460431;28;20622;-22
2023/05/14 21:50:52;;;;;;;6.15;3.22;;;23.50;66.60;;;;;;10488548;28;20079;-25
2023/05/14 21:55:55;;;;;;;4.05;2.63;;;23.40;66.00;;;;;;10500039;28;20645;-24
2023/05/14 22:00:57;;;;;;;5.50;3.28;;;23.40;66.40;;;;;;10495243;28;20524;-24
2023/05/14 22:05:59;;;;;;;6.90;3.40;;;23.40;66.50;;;;;;10494205;28;20049;-24
2023/05/14 22:11:02;;;;;;;6.60;3.30;;;23.40;66.50;;;;;;10490047;28;20405;-24
2023/05/14 22:16:04;;;;;;;3.78;2.50;;;23.30;66.30;;;;;;10490398;28;20052;-23
2023/05/14 22:21:06;;;;;;;5.55;3.15;;;23.30;65.80;;;;;;10484315;28;20195;-24
2023/05/14 22:26:09;;;;;;;;;;;23.20;67.00;;;;;;10487815;28;20044;-24
2023/05/14 22:31:11;;;;;;;4.90;2.42;;;23.20;67.10;;;;;;10486707;28;19920;-25
2023/05/14 22:36:13;;;;;;;6.20;3.20;;;23.10;66.20;;;;;;10490463;28;20076;-24
2023/05/14 22:41:17;;;;;;;5.40;2.75;;;23.10;66.40;;;;;;10491190;28;20409;-24
2023/05/14 22:46:18;;;;;;;4.80;2.60;;;23.00;66.20;;;;;;10468124;28;20045;-24
2023/05/14 22:51:20;;;;;;;;;;;23.00;66.00;;;;;;10485700;28;20037;-24
2023/05/14 22:56:23;;;;;;;5.87;3.20;;;22.90;65.90;;;;;;10500011;28;19923;-24
2023/05/14 23:01:25;;;;;;;3.83;3.13;;;22.90;67.20;;;;;;10492206;28;20127;-24
2023/05/14 23:06:27;;;;;;;6.40;3.13;;;22.80;66.90;;;;;;10484853;28;20448;-24
2023/05/14 23:11:30;;;;;;;;;;;22.70;66.70;;;;;;10503588;28;20105;-24
2023/05/14 23:16:32;;;;;;;5.13;3.00;;;22.50;66.90;;;;;;10481465;28;19928;-26
2023/05/14 23:21:34;;;;;;;4.63;3.03;;;22.60;66.10;;;;;;10501076;28;20080;-23
2023/05/14 23:26:37;;;;;;;6.97;3.30;;;22.50;67.00;;;;;;10503338;28;20080;-24
2023/05/14 23:31:39;;;;;;;4.57;3.28;;;22.40;65.30;;;;;;10507784;28;20382;-25
2023/05/14 23:36:41;;;;;;;4.90;3.10;;;22.50;67.20;;;;;;10496290;28;20386;-24
2023/05/14 23:41:44;;;;;;;5.25;2.75;;;22.30;66.60;;;;;;10486898;28;20687;-24
2023/05/14 23:46:46;;;;;;;3.78;2.65;;;22.40;66.70;;;;;;10496303;28;20048;-24
2023/05/14 23:51:48;;;;;;;5.32;2.95;;;22.40;66.60;;;;;;10509280;28;20113;-26
2023/05/14 23:56:52;;;;;;;5.35;2.70;;;22.40;66.60;;;;;;10495958;28;20128;-25
